Weather History for Chipley, FL

Change the Weather History Date:

Saturday, February 16, 2013

  Actual Average (KMAI) Record (KMAI)
Temperature  
Mean Temperature 50 °F 55 °F  
Max Temperature 53 °F 66 °F 80 °F (2001)
Min Temperature 46 °F 43 °F 27 °F (2007)
Degree Days  
Heating Degree Days 16    
Month to date heating degree days  
Since 1 July heating degree days  
Cooling Degree Days 0    
Month to date cooling degree days  
Year to date cooling degree days  
Moisture  
Dew Point 26 °F    
Average Humidity 41    
Maximum Humidity 66    
Minimum Humidity 24    
Precipitation  
Precipitation 0.00 in 0.16 in 1.22 in (1998)
Month to date precipitation 2.70  
Year to date precipitation 7.74  
Sea Level Pressure  
Sea Level Pressure 30.25 in    
Wind  
Wind Speed 8 mph (NNW)    
Max Wind Speed 14 mph    
Max Gust Speed 24 mph    
Visibility 10 miles    
Events      
T = Trace of Precipitation, MM = Missing Value Source: NWS Daily Summary

Daily Weather History Graph

Daily Weather History Graph

Search for Another Location

Airport:

Trip Planner

Search our weather history database for the weather conditions in past years. The results will help you decide how hot, cold, wet, or windy it might be!

Date:

Astronomy

Feb. 16, 2013 Rise Set
Actual Time 6:21 AM CST 5:31 PM CST
Civil Twilight 5:57 AM CST 5:55 PM CST
Nautical Twilight 5:29 AM CST 6:24 PM CST
Astronomical Twilight 5:01 AM CST 6:52 PM CST
Moon 10:03 AM CST (2/16) 11:56 PM CST (2/16)
Length of Visible Light 11h 58m
Length of Day
11h 09m
Waxing Crescent, 39% of the Moon is Illuminated
Feb 16
Waxing Crescent
Feb 17
First Quarter
Feb 25
Full
Mar 4
Last Quarter
Mar 11
New

Hourly Weather History & Observations

Time (CST) Temp. Windchill Dew Point Humidity Pressure Visibility Wind Dir Wind Speed Gust Speed Precip Events Conditions
12:15 AM 53.6 °F - 37.4 °F 54% 30.17 in 10.0 mi North 8.1 mph - N/A   Clear
12:35 AM 53.6 °F - 37.4 °F 54% 30.17 in 10.0 mi North 6.9 mph - N/A   Clear
12:55 AM 53.6 °F - 37.4 °F 54% 30.17 in 10.0 mi North 5.8 mph - N/A   Clear
1:15 AM 53.6 °F - 37.4 °F 54% 30.18 in 10.0 mi North 5.8 mph - N/A   Partly Cloudy
1:35 AM 53.6 °F - 37.4 °F 54% 30.17 in 10.0 mi NNW 8.1 mph - N/A   Mostly Cloudy
1:55 AM 53.6 °F - 37.4 °F 54% 30.17 in 10.0 mi NNW 8.1 mph - N/A   Overcast
2:15 AM 53.6 °F - 37.4 °F 54% 30.18 in 10.0 mi North 8.1 mph - N/A   Overcast
2:35 AM 53.6 °F - 35.6 °F 51% 30.18 in 10.0 mi North 8.1 mph - N/A   Overcast
2:55 AM 51.8 °F - 33.8 °F 50% 30.18 in 10.0 mi North 8.1 mph 16.1 mph N/A   Overcast
3:15 AM 51.8 °F - 35.6 °F 54% 30.19 in 10.0 mi NNW 6.9 mph 17.3 mph N/A   Overcast
3:35 AM 51.8 °F - 35.6 °F 54% 30.18 in 10.0 mi North 4.6 mph - N/A   Overcast
3:55 AM 51.8 °F - 35.6 °F 54% 30.20 in 10.0 mi NNW 10.4 mph 21.9 mph N/A   Overcast
4:15 AM 50.0 °F - 37.4 °F 62% 30.19 in 10.0 mi NW 5.8 mph - N/A   Overcast
4:35 AM 48.2 °F - 37.4 °F 66% 30.18 in 10.0 mi NNW 3.5 mph - N/A   Overcast
4:55 AM 50.0 °F - 37.4 °F 62% 30.20 in 10.0 mi NNW 8.1 mph - N/A   Overcast
5:15 AM 50.0 °F - 35.6 °F 58% 30.20 in 10.0 mi NNW 8.1 mph - N/A   Mostly Cloudy
5:35 AM 48.2 °F - 37.4 °F 66% 30.20 in 10.0 mi NNW 5.8 mph - N/A   Partly Cloudy
5:55 AM 48.2 °F - 35.6 °F 62% 30.21 in 10.0 mi NNW 8.1 mph - N/A   Clear
6:15 AM 48.2 °F - 33.8 °F 58% 30.21 in 10.0 mi North 9.2 mph - N/A   Clear
6:35 AM 48.2 °F - 33.8 °F 58% 30.23 in 10.0 mi NNW 8.1 mph - N/A   Clear
6:55 AM 48.2 °F - 33.8 °F 58% 30.25 in 10.0 mi NNW 5.8 mph 18.4 mph N/A   Partly Cloudy
7:15 AM 46.4 °F 42.9 °F 33.8 °F 62% 30.26 in 10.0 mi NNW 6.9 mph - N/A   Clear
7:35 AM 46.4 °F 40.4 °F 32.0 °F 57% 30.28 in 10.0 mi NNW 13.8 mph 24.2 mph N/A   Clear
7:55 AM 46.4 °F 41.9 °F 30.2 °F 53% 30.28 in 10.0 mi NNW 9.2 mph 18.4 mph N/A   Clear
8:15 AM 46.4 °F 42.4 °F 30.2 °F 53% 30.29 in 10.0 mi NNW 8.1 mph - N/A   Clear
8:35 AM 46.4 °F 41.9 °F 30.2 °F 53% 30.29 in 10.0 mi NNW 9.2 mph 19.6 mph N/A   Clear
8:55 AM 46.4 °F 40.7 °F 28.4 °F 50% 30.30 in 10.0 mi NW 12.7 mph 18.4 mph N/A   Clear
9:15 AM 46.4 °F 41.1 °F 28.4 °F 50% 30.30 in 10.0 mi NNW 11.5 mph 17.3 mph N/A   Clear
9:35 AM 46.4 °F 41.5 °F 28.4 °F 50% 30.31 in 10.0 mi North 10.4 mph 17.3 mph N/A   Clear
9:55 AM 48.2 °F - 28.4 °F 46% 30.31 in 10.0 mi NW 10.4 mph - N/A   Clear
10:15 AM 48.2 °F - 26.6 °F 43% 30.31 in 10.0 mi NNW 13.8 mph 19.6 mph N/A   Clear
10:35 AM 48.2 °F - 26.6 °F 43% 30.31 in 10.0 mi NW 9.2 mph 18.4 mph N/A   Clear
10:55 AM 48.2 °F - 24.8 °F 40% 30.31 in 10.0 mi NNW 13.8 mph 18.4 mph N/A   Clear
11:15 AM 50.0 °F - 24.8 °F 37% 30.30 in 10.0 mi NNW 11.5 mph 20.7 mph N/A   Clear
11:35 AM 48.2 °F - 24.8 °F 40% 30.29 in 10.0 mi WNW 10.4 mph 23.0 mph N/A   Clear
11:55 AM 51.8 °F - 24.8 °F 35% 30.29 in 10.0 mi North 9.2 mph 20.7 mph N/A   Clear
12:15 PM 51.8 °F - 23.0 °F 33% 30.28 in 10.0 mi NW 12.7 mph 18.4 mph N/A   Clear
12:35 PM 51.8 °F - 21.2 °F 30% 30.27 in 10.0 mi WNW 11.5 mph 18.4 mph N/A   Clear
12:55 PM 51.8 °F - 21.2 °F 30% 30.26 in 10.0 mi NW 9.2 mph 21.9 mph N/A   Clear
1:15 PM 51.8 °F - 21.2 °F 30% 30.24 in 10.0 mi NW 12.7 mph 24.2 mph N/A   Clear
1:35 PM 51.8 °F - 19.4 °F 28% 30.24 in 10.0 mi NW 13.8 mph 24.2 mph N/A   Clear
1:55 PM 53.6 °F - 19.4 °F 26% 30.23 in 10.0 mi NNW 10.4 mph 24.2 mph N/A   Clear
2:15 PM 53.6 °F - 19.4 °F 26% 30.23 in 10.0 mi NW 11.5 mph 20.7 mph N/A   Clear
2:35 PM 53.6 °F - 17.6 °F 24% 30.23 in 10.0 mi WNW 11.5 mph 21.9 mph N/A   Clear
2:55 PM 53.6 °F - 17.6 °F 24% 30.23 in 10.0 mi NW 10.4 mph 21.9 mph N/A   Clear
3:15 PM 53.6 °F - 17.6 °F 24% 30.23 in 10.0 mi NNW 6.9 mph 18.4 mph N/A   Clear
3:35 PM 53.6 °F - 17.6 °F 24% 30.23 in 10.0 mi WNW 10.4 mph 20.7 mph N/A   Clear
3:55 PM 53.6 °F - 17.6 °F 24% 30.22 in 10.0 mi WNW 9.2 mph 17.3 mph N/A   Clear
4:15 PM 53.6 °F - 17.6 °F 24% 30.22 in 10.0 mi NW 9.2 mph 17.3 mph N/A   Clear
4:35 PM 53.6 °F - 17.6 °F 24% 30.23 in 10.0 mi WNW 6.9 mph 18.4 mph N/A   Clear
4:55 PM 53.6 °F - 17.6 °F 24% 30.23 in 10.0 mi NW 12.7 mph 19.6 mph N/A   Clear
5:15 PM 51.8 °F - 17.6 °F 26% 30.23 in 10.0 mi NW 8.1 mph 18.4 mph N/A   Clear
5:35 PM 51.8 °F - 17.6 °F 26% 30.23 in 10.0 mi NW 6.9 mph 17.3 mph N/A   Clear
5:55 PM 51.8 °F - 17.6 °F 26% 30.24 in 10.0 mi NNW 8.1 mph 19.6 mph N/A   Clear
6:15 PM 51.8 °F - 17.6 °F 26% 30.25 in 10.0 mi NW 6.9 mph 16.1 mph N/A   Clear
6:35 PM 50.0 °F - 17.6 °F 28% 30.26 in 10.0 mi NNW 6.9 mph - N/A   Clear
6:55 PM 50.0 °F - 19.4 °F 30% 30.26 in 10.0 mi NNW 5.8 mph - N/A   Clear
7:15 PM 50.0 °F - 17.6 °F 28% 30.27 in 10.0 mi NNW 6.9 mph - N/A   Clear
7:35 PM 50.0 °F - 19.4 °F 30% 30.28 in 10.0 mi NNW 5.8 mph - N/A   Clear
7:55 PM 50.0 °F - 19.4 °F 30% 30.28 in 10.0 mi NNW 6.9 mph - N/A   Clear
8:15 PM 50.0 °F - 19.4 °F 30% 30.29 in 10.0 mi NNW 5.8 mph - N/A   Clear
8:35 PM 50.0 °F - 19.4 °F 30% 30.29 in 10.0 mi North 6.9 mph - N/A   Clear
8:55 PM 50.0 °F - 19.4 °F 30% 30.30 in 10.0 mi North 6.9 mph - N/A   Clear
9:15 PM 50.0 °F - 19.4 °F 30% 30.30 in 10.0 mi North 4.6 mph - N/A   Clear
9:35 PM 48.2 °F - 19.4 °F 32% 30.30 in 10.0 mi North 3.5 mph - N/A   Clear
9:55 PM 48.2 °F - 21.2 °F 34% 30.30 in 10.0 mi NNE 3.5 mph - N/A   Clear
10:15 PM 48.2 °F - 21.2 °F 34% 30.30 in 10.0 mi NNE 3.5 mph - N/A   Clear
10:35 PM 48.2 °F - 21.2 °F 34% 30.31 in 10.0 mi NNE 4.6 mph - N/A   Clear
10:55 PM 48.2 °F - 21.2 °F 34% 30.30 in 10.0 mi NNE 3.5 mph - N/A   Clear
11:15 PM 48.2 °F - 21.2 °F 34% 30.30 in 10.0 mi Calm Calm - N/A   Clear
11:35 PM 48.2 °F - 21.2 °F 34% 30.30 in 10.0 mi Calm Calm - N/A   Clear
11:55 PM 46.4 °F - 23.0 °F 40% 30.31 in 10.0 mi Calm Calm - N/A   Clear